Time;durP1;ratioP1;P1;durP2;ratioP2;P2;SDS_P1;SDS_P2;PMS_P1;PMS_P2;Temp;Humidity;BMP_temperature;BMP_pressure;BME280_temperature;BME280_humidity;BME280_pressure;Samples;Min_cycle;Max_cycle;Signal;HPM_P1;HPM_P2
2021/01/01 00:02:11;;;;;;;41.77;22.03;;;2.50;99.90;;;;;;5091589;28;20476;-69
2021/01/01 00:04:39;;;;;;;35.83;20.80;;;2.40;99.90;;;;;;5091813;28;20389;-70
2021/01/01 00:07:06;;;;;;;42.10;20.10;;;2.40;99.90;;;;;;5091117;28;20139;-70
2021/01/01 00:09:32;;;;;;;41.83;22.83;;;2.50;99.90;;;;;;5093334;28;20056;-70
2021/01/01 00:11:59;;;;;;;35.43;19.57;;;2.50;99.90;;;;;;5092378;28;20054;-70
2021/01/01 00:14:26;;;;;;;39.30;20.53;;;2.40;99.90;;;;;;5093253;28;20143;-70
2021/01/01 00:16:52;;;;;;;47.53;23.50;;;2.40;99.90;;;;;;5092019;28;20096;-70
2021/01/01 00:19:19;;;;;;;43.57;21.20;;;2.50;99.90;;;;;;5093723;28;20084;-70
2021/01/01 00:21:47;;;;;;;44.13;22.53;;;2.50;99.90;;;;;;5092702;28;20056;-70
2021/01/01 00:24:13;;;;;;;38.73;22.27;;;2.50;99.90;;;;;;5093345;28;20089;-70
2021/01/01 00:26:40;;;;;;;40.97;19.70;;;2.50;99.90;;;;;;5093941;28;20051;-70
2021/01/01 00:29:07;;;;;;;40.63;20.73;;;2.60;99.90;;;;;;5093503;28;20577;-70
2021/01/01 00:31:34;;;;;;;43.83;21.53;;;2.60;99.90;;;;;;5093143;28;20048;-70
2021/01/01 00:34:00;;;;;;;41.87;23.07;;;2.50;99.90;;;;;;5091065;28;20530;-70
2021/01/01 00:36:27;;;;;;;46.80;24.17;;;2.60;99.90;;;;;;5091835;28;20052;-71
2021/01/01 00:38:54;;;;;;;44.93;23.47;;;2.60;99.90;;;;;;5091837;28;20052;-70
2021/01/01 00:41:26;;;;;;;46.70;21.53;;;2.60;99.90;;;;;;5091998;28;20059;-70
2021/01/01 00:43:54;;;;;;;43.57;23.87;;;2.60;99.90;;;;;;5091334;28;20048;-70
2021/01/01 00:46:21;;;;;;;48.37;25.00;;;2.60;99.90;;;;;;5091558;28;20048;-71
2021/01/01 00:48:48;;;;;;;49.10;24.10;;;2.60;99.90;;;;;;5090555;28;20044;-70
2021/01/01 00:51:14;;;;;;;45.93;23.73;;;2.60;99.90;;;;;;5090307;28;20249;-70
2021/01/01 00:53:41;;;;;;;44.47;23.57;;;2.70;99.90;;;;;;5090793;28;20490;-70
2021/01/01 00:56:09;;;;;;;40.77;21.90;;;2.70;99.90;;;;;;5090984;28;20048;-70
2021/01/01 00:58:35;;;;;;;39.13;20.97;;;2.70;99.90;;;;;;5090581;28;20105;-70
2021/01/01 01:01:02;;;;;;;39.03;20.83;;;2.70;99.90;;;;;;5090547;28;20048;-70
2021/01/01 01:03:29;;;;;;;42.03;21.23;;;2.70;99.90;;;;;;5090795;28;20058;-70
2021/01/01 01:05:55;;;;;;;37.53;19.37;;;2.70;99.90;;;;;;5090337;28;20424;-70
2021/01/01 01:08:22;;;;;;;40.37;20.83;;;2.80;99.90;;;;;;5090668;28;20059;-70
2021/01/01 01:10:49;;;;;;;35.77;19.30;;;2.80;99.90;;;;;;5090196;28;20523;-70
2021/01/01 01:13:16;;;;;;;38.83;20.10;;;2.80;99.90;;;;;;5090827;28;20400;-70
2021/01/01 01:15:44;;;;;;;37.17;19.50;;;2.80;99.90;;;;;;5090252;28;20048;-70
2021/01/01 01:18:11;;;;;;;36.77;18.43;;;2.80;99.90;;;;;;5090564;28;20051;-70
2021/01/01 01:20:37;;;;;;;36.10;19.17;;;2.80;99.90;;;;;;5089959;28;20052;-70
2021/01/01 01:23:04;;;;;;;36.70;19.10;;;2.80;99.90;;;;;;5090921;28;20062;-70
2021/01/01 01:25:30;;;;;;;35.73;19.90;;;2.90;99.90;;;;;;5090194;28;20058;-70
2021/01/01 01:27:57;;;;;;;36.97;20.10;;;2.80;99.90;;;;;;5090244;28;20101;-70
2021/01/01 01:30:25;;;;;;;39.10;19.40;;;2.90;99.90;;;;;;5089775;28;20048;-70
2021/01/01 01:32:52;;;;;;;35.10;18.87;;;2.80;99.90;;;;;;5090685;28;20522;-70
2021/01/01 01:35:18;;;;;;;39.00;19.83;;;2.80;99.90;;;;;;5089405;28;20557;-70
2021/01/01 01:37:45;;;;;;;37.70;19.70;;;2.80;99.90;;;;;;5089793;28;20511;-70
2021/01/01 01:40:12;;;;;;;36.17;18.93;;;2.90;99.90;;;;;;5090046;28;20055;-70
2021/01/01 01:42:41;;;;;;;38.73;19.97;;;2.80;99.90;;;;;;5089931;28;20055;-70
2021/01/01 01:45:09;;;;;;;34.20;18.77;;;2.80;99.90;;;;;;5090817;28;20055;-70
2021/01/01 01:47:37;;;;;;;36.67;18.23;;;2.80;99.90;;;;;;5089700;28;20109;-70
2021/01/01 01:50:05;;;;;;;38.77;19.40;;;2.90;99.90;;;;;;5090328;28;20044;-70
2021/01/01 01:52:33;;;;;;;39.23;18.93;;;2.80;99.90;;;;;;5089895;28;20423;-70
2021/01/01 01:55:01;;;;;;;40.07;20.80;;;2.90;99.90;;;;;;5090345;28;20055;-70
2021/01/01 01:57:28;;;;;;;39.40;20.40;;;2.80;99.90;;;;;;5089601;28;20497;-70
2021/01/01 01:59:57;;;;;;;38.80;19.47;;;2.80;99.90;;;;;;5090397;28;20048;-70
2021/01/01 02:02:24;;;;;;;43.63;21.07;;;2.90;99.90;;;;;;5090505;28;20073;-70
2021/01/01 02:04:51;;;;;;;41.83;20.57;;;2.80;99.90;;;;;;5093916;28;20094;-70
2021/01/01 02:07:18;;;;;;;40.50;21.17;;;2.80;99.90;;;;;;5093533;28;20076;-70
2021/01/01 02:09:46;;;;;;;41.20;21.10;;;2.80;99.90;;;;;;5093779;28;20052;-70
2021/01/01 02:12:13;;;;;;;42.00;21.10;;;2.80;99.90;;;;;;5093350;28;20105;-70
2021/01/01 02:14:40;;;;;;;39.13;20.73;;;2.80;99.90;;;;;;5093310;28;20087;-70
2021/01/01 02:17:07;;;;;;;40.97;20.37;;;2.70;99.90;;;;;;5093603;28;20114;-70
2021/01/01 02:19:33;;;;;;;43.93;21.67;;;2.80;99.90;;;;;;5093313;28;20409;-70
2021/01/01 02:22:03;;;;;;;43.87;21.83;;;2.80;99.90;;;;;;5093305;28;20055;-70
2021/01/01 02:24:30;;;;;;;42.23;22.30;;;2.80;99.90;;;;;;5093045;28;20048;-70
2021/01/01 02:26:57;;;;;;;39.27;19.80;;;2.80;99.90;;;;;;5093484;28;20120;-70
2021/01/01 02:29:24;;;;;;;38.63;19.90;;;2.90;99.90;;;;;;5092989;28;20044;-70
2021/01/01 02:31:50;;;;;;;45.23;21.27;;;2.90;99.90;;;;;;5093106;28;20051;-70
2021/01/01 02:34:17;;;;;;;41.13;20.80;;;2.90;99.90;;;;;;5092833;28;20052;-70
2021/01/01 02:36:44;;;;;;;43.67;20.13;;;2.90;99.90;;;;;;5093331;28;20416;-70
2021/01/01 02:39:10;;;;;;;35.70;19.33;;;3.00;99.90;;;;;;5092702;28;20097;-71
2021/01/01 02:41:38;;;;;;;36.07;18.60;;;3.00;99.90;;;;;;5092863;28;20122;-70
2021/01/01 02:44:05;;;;;;;33.70;18.70;;;3.00;99.90;;;;;;5093299;28;20052;-70
2021/01/01 02:46:31;;;;;;;36.80;18.93;;;3.00;99.90;;;;;;5092712;28;20518;-70
2021/01/01 02:48:58;;;;;;;32.80;18.77;;;3.00;99.90;;;;;;5093283;28;20052;-70
2021/01/01 02:51:24;;;;;;;34.67;17.53;;;3.10;99.90;;;;;;5092772;28;20052;-70
2021/01/01 02:53:51;;;;;;;38.20;19.13;;;3.10;99.90;;;;;;5092828;28;20112;-70
2021/01/01 02:56:18;;;;;;;35.37;18.37;;;3.10;99.90;;;;;;5092673;28;20051;-70
2021/01/01 02:58:45;;;;;;;33.83;17.53;;;3.00;99.90;;;;;;5092806;28;20044;-70
2021/01/01 03:01:12;;;;;;;33.43;16.97;;;3.10;99.90;;;;;;5092166;28;20127;-70
2021/01/01 03:03:39;;;;;;;33.80;17.27;;;3.10;99.90;;;;;;5092908;28;20052;-70
2021/01/01 03:06:05;;;;;;;33.73;17.63;;;3.00;99.90;;;;;;5092192;28;20055;-70
2021/01/01 03:08:32;;;;;;;35.97;18.97;;;3.10;99.90;;;;;;5092561;28;20048;-70
2021/01/01 03:10:59;;;;;;;36.20;19.03;;;3.00;99.90;;;;;;5092102;28;20055;-70
2021/01/01 03:13:25;;;;;;;35.87;19.23;;;3.00;99.90;;;;;;5092247;28;20512;-70
2021/01/01 03:15:53;;;;;;;35.13;19.33;;;3.00;99.90;;;;;;5090935;28;20060;-70
2021/01/01 03:18:20;;;;;;;38.07;19.63;;;3.00;99.90;;;;;;5092222;28;20094;-70
2021/01/01 03:20:47;;;;;;;35.33;18.23;;;2.90;99.90;;;;;;5092884;28;20055;-70
2021/01/01 03:23:14;;;;;;;38.93;19.93;;;2.90;99.90;;;;;;5092250;28;20496;-70
2021/01/01 03:25:43;;;;;;;41.70;20.17;;;2.90;99.90;;;;;;5092459;28;20139;-70
2021/01/01 03:28:12;;;;;;;38.33;21.77;;;2.90;99.90;;;;;;5092103;28;20048;-70
2021/01/01 03:30:39;;;;;;;39.70;20.70;;;3.00;99.90;;;;;;5091622;28;20055;-70
2021/01/01 03:33:07;;;;;;;39.30;21.07;;;3.00;99.90;;;;;;5091653;28;20088;-70
2021/01/01 03:35:34;;;;;;;40.77;21.20;;;3.00;99.90;;;;;;5092240;28;20070;-70
2021/01/01 03:38:01;;;;;;;41.47;20.87;;;3.00;99.90;;;;;;5091266;28;20044;-70
2021/01/01 03:40:28;;;;;;;39.83;20.70;;;3.10;99.90;;;;;;5091702;28;20176;-70
2021/01/01 03:42:54;;;;;;;43.73;19.93;;;3.10;99.90;;;;;;5091682;28;20052;-70
2021/01/01 03:45:21;;;;;;;38.07;20.10;;;3.00;99.90;;;;;;5092009;28;20056;-70
2021/01/01 03:47:48;;;;;;;41.43;20.33;;;3.00;99.90;;;;;;5091340;28;20051;-70
2021/01/01 03:50:15;;;;;;;39.40;18.83;;;3.00;99.90;;;;;;5091381;28;20048;-70
2021/01/01 03:52:42;;;;;;;39.13;18.40;;;3.00;99.90;;;;;;5089538;28;20052;-70
2021/01/01 03:55:10;;;;;;;36.80;18.83;;;3.10;99.90;;;;;;5089618;28;20048;-70
2021/01/01 03:57:36;;;;;;;39.67;20.33;;;3.10;99.90;;;;;;5091690;28;20052;-70
2021/01/01 04:00:05;;;;;;;39.00;19.50;;;3.10;99.90;;;;;;5091147;28;20523;-70
2021/01/01 04:02:32;;;;;;;37.97;19.57;;;3.10;99.90;;;;;;5091661;28;20075;-70
2021/01/01 04:04:59;;;;;;;40.03;19.07;;;3.10;99.90;;;;;;5091726;28;20059;-70
2021/01/01 04:07:27;;;;;;;38.83;20.70;;;3.10;99.90;;;;;;5091396;28;20145;-70
2021/01/01 04:09:53;;;;;;;38.70;19.73;;;3.10;99.90;;;;;;5091168;28;20115;-70
2021/01/01 04:12:20;;;;;;;40.37;19.00;;;3.10;99.90;;;;;;5091330;28;20044;-70
2021/01/01 04:14:47;;;;;;;36.53;19.93;;;3.20;99.90;;;;;;5091470;28;20102;-70
2021/01/01 04:17:13;;;;;;;34.57;18.30;;;3.20;99.90;;;;;;5091308;28;20056;-70
2021/01/01 04:19:40;;;;;;;34.27;19.00;;;3.30;99.90;;;;;;5090905;28;20048;-70
2021/01/01 04:22:07;;;;;;;33.27;17.97;;;3.20;99.90;;;;;;5090872;28;20048;-70
2021/01/01 04:24:34;;;;;;;33.83;18.67;;;3.20;99.90;;;;;;5090809;28;20492;-70
2021/01/01 04:27:01;;;;;;;34.97;18.83;;;3.20;99.90;;;;;;5090391;28;20564;-70
2021/01/01 04:29:28;;;;;;;35.77;18.40;;;3.10;99.90;;;;;;5090952;28;20047;-70
2021/01/01 04:31:54;;;;;;;33.40;17.27;;;3.10;99.90;;;;;;5090661;28;20056;-71
2021/01/01 04:34:21;;;;;;;39.10;20.40;;;3.20;99.90;;;;;;5091230;28;20055;-70
2021/01/01 04:36:48;;;;;;;38.83;20.63;;;3.20;99.90;;;;;;5090454;28;20052;-70
2021/01/01 04:39:14;;;;;;;43.57;20.87;;;3.20;99.90;;;;;;5091167;28;20052;-70
2021/01/01 04:41:42;;;;;;;40.00;20.27;;;3.30;99.90;;;;;;5090445;28;20488;-70
2021/01/01 04:44:09;;;;;;;37.70;19.67;;;3.30;99.90;;;;;;5090784;28;20048;-70
2021/01/01 04:46:37;;;;;;;38.80;18.80;;;3.30;99.90;;;;;;5090658;28;20051;-70
2021/01/01 04:49:05;;;;;;;38.83;19.13;;;3.60;99.90;;;;;;5091161;28;20063;-70
2021/01/01 04:51:32;;;;;;;34.17;18.27;;;3.50;99.90;;;;;;5090022;28;20047;-70
2021/01/01 04:53:58;;;;;;;36.47;19.20;;;3.50;99.90;;;;;;5090789;28;20427;-70
2021/01/01 04:56:25;;;;;;;34.13;17.83;;;3.40;99.90;;;;;;5090411;28;20059;-70
2021/01/01 04:58:53;;;;;;;35.87;18.33;;;3.40;99.90;;;;;;5090668;28;20114;-70
2021/01/01 05:01:23;;;;;;;35.73;19.60;;;3.40;99.90;;;;;;5090264;28;20180;-70
2021/01/01 05:03:50;;;;;;;33.33;18.60;;;3.30;99.90;;;;;;5090938;28;20052;-70
2021/01/01 05:06:28;;;;;;;37.17;18.23;;;3.30;99.90;;;;;;5090840;28;20044;-70
2021/01/01 05:08:54;;;;;;;35.03;17.80;;;3.40;99.90;;;;;;5090325;28;20097;-70
2021/01/01 05:11:22;;;;;;;33.73;18.27;;;3.40;99.90;;;;;;5090342;28;20108;-70
2021/01/01 05:13:56;;;;;;;35.90;18.47;;;3.30;99.90;;;;;;5090364;28;20416;-70
2021/01/01 05:16:23;;;;;;;32.97;18.53;;;3.40;99.90;;;;;;5090752;28;20048;-70
2021/01/01 05:18:50;;;;;;;34.20;18.03;;;3.30;99.90;;;;;;5090133;28;20087;-70
2021/01/01 05:21:23;;;;;;;36.40;18.97;;;3.50;99.90;;;;;;5090198;28;20047;-70
2021/01/01 05:23:51;;;;;;;31.00;18.03;;;3.40;99.90;;;;;;5090005;28;20139;-70
2021/01/01 05:26:19;;;;;;;35.30;18.50;;;3.50;99.90;;;;;;5090483;28;20044;-70
2021/01/01 05:29:02;;;;;;;33.50;18.23;;;3.40;99.90;;;;;;5089902;28;20055;-70
2021/01/01 05:31:30;;;;;;;32.93;17.70;;;3.40;99.90;;;;;;5090249;28;20442;-70
2021/01/01 05:34:00;;;;;;;33.90;17.40;;;3.50;99.90;;;;;;5090138;28;20056;-70
2021/01/01 05:36:35;;;;;;;40.17;19.30;;;3.40;99.90;;;;;;5090413;28;20404;-70
2021/01/01 05:39:05;;;;;;;37.70;20.27;;;3.30;99.90;;;;;;5093587;28;20047;-70
2021/01/01 05:41:37;;;;;;;38.83;20.80;;;3.30;99.90;;;;;;5094019;28;20051;-71
2021/01/01 05:44:13;;;;;;;41.33;20.97;;;3.40;99.90;;;;;;5094420;28;20052;-70
2021/01/01 05:46:58;;;;;;;40.40;20.80;;;3.30;99.90;;;;;;5094013;28;20056;-70
2021/01/01 05:49:27;;;;;;;41.60;20.90;;;3.30;99.90;;;;;;5093875;28;20618;-70
2021/01/01 05:52:08;;;;;;;37.17;20.47;;;3.30;99.90;;;;;;5094149;28;20143;-70
2021/01/01 05:54:35;;;;;;;41.43;20.57;;;3.30;99.90;;;;;;5093690;28;20052;-70
2021/01/01 05:57:04;;;;;;;43.43;22.83;;;3.40;99.90;;;;;;5093914;28;20052;-71
2021/01/01 05:59:35;;;;;;;42.07;21.43;;;3.20;99.90;;;;;;5093579;28;20043;-70
2021/01/01 06:02:03;;;;;;;40.47;20.97;;;3.20;99.90;;;;;;5093498;28;20044;-70
2021/01/01 06:04:31;;;;;;;42.67;21.70;;;3.20;99.90;;;;;;5093713;28;20117;-70
2021/01/01 06:07:01;;;;;;;41.73;19.97;;;3.40;99.90;;;;;;5093728;28;20511;-70
2021/01/01 06:09:29;;;;;;;37.33;20.40;;;3.40;99.90;;;;;;5093999;28;20051;-70
2021/01/01 06:12:14;;;;;;;40.87;20.07;;;3.40;99.90;;;;;;5092964;28;20385;-70
2021/01/01 06:14:43;;;;;;;42.60;21.07;;;3.30;99.90;;;;;;5093779;28;20044;-70
2021/01/01 06:17:20;;;;;;;38.53;20.57;;;3.30;99.90;;;;;;5093045;28;20105;-70
2021/01/01 06:19:52;;;;;;;36.13;19.40;;;3.30;99.90;;;;;;5093479;28;20124;-70
2021/01/01 06:22:20;;;;;;;38.23;20.67;;;3.20;99.90;;;;;;5092647;28;20048;-70
2021/01/01 06:24:51;;;;;;;40.63;21.50;;;3.20;99.90;;;;;;5093653;28;20062;-70
2021/01/01 06:27:19;;;;;;;34.63;19.43;;;3.30;99.90;;;;;;5093027;28;20052;-70
2021/01/01 06:29:50;;;;;;;41.30;21.67;;;3.20;99.90;;;;;;5093470;28;20133;-70
2021/01/01 06:32:19;;;;;;;38.17;20.13;;;3.10;99.90;;;;;;5092982;28;20411;-70
2021/01/01 06:34:46;;;;;;;38.60;20.33;;;3.20;99.90;;;;;;5093499;28;20416;-70
2021/01/01 06:37:37;;;;;;;43.20;20.40;;;3.10;99.90;;;;;;5092875;28;20054;-70
2021/01/01 06:40:06;;;;;;;42.27;21.80;;;3.10;99.90;;;;;;5093553;28;20059;-70
2021/01/01 06:42:57;;;;;;;38.17;20.23;;;3.10;99.90;;;;;;5092977;28;20052;-70
2021/01/01 06:45:39;;;;;;;36.17;19.53;;;3.10;99.90;;;;;;5078359;28;20063;-70
2021/01/01 06:48:07;;;;;;;38.60;21.30;;;3.10;99.90;;;;;;5092669;28;20109;-70
2021/01/01 06:50:35;;;;;;;41.10;20.60;;;3.10;99.90;;;;;;5092095;28;20048;-70
2021/01/01 06:53:02;;;;;;;40.27;21.33;;;3.10;99.90;;;;;;5092624;28;20522;-70
2021/01/01 06:55:33;;;;;;;39.47;20.70;;;3.10;99.90;;;;;;5093032;28;20059;-70
2021/01/01 06:58:00;;;;;;;42.63;21.33;;;3.10;99.90;;;;;;5092548;28;20048;-70
2021/01/01 07:00:53;;;;;;;39.43;20.60;;;3.10;99.90;;;;;;5092718;28;20051;-70
2021/01/01 07:03:37;;;;;;;40.77;20.23;;;3.10;99.90;;;;;;5092267;28;20492;-70
2021/01/01 07:06:38;;;;;;;38.83;19.50;;;3.10;99.90;;;;;;5092744;28;20048;-70
2021/01/01 07:09:07;;;;;;;39.73;20.27;;;3.10;99.90;;;;;;5092396;28;20063;-70
2021/01/01 07:11:36;;;;;;;39.13;21.10;;;3.10;99.90;;;;;;5092264;28;20055;-70
2021/01/01 07:14:07;;;;;;;43.03;20.50;;;3.00;99.90;;;;;;5091981;28;20079;-70
2021/01/01 07:16:37;;;;;;;40.27;20.10;;;3.00;99.90;;;;;;5092509;28;20077;-70
2021/01/01 07:19:04;;;;;;;39.87;19.83;;;3.10;99.90;;;;;;5091821;28;20048;-69
2021/01/01 07:21:31;;;;;;;39.73;20.20;;;3.10;99.90;;;;;;5092083;28;20100;-70
2021/01/01 07:23:58;;;;;;;40.17;21.07;;;3.10;99.90;;;;;;5091977;28;20412;-70
2021/01/01 07:26:29;;;;;;;40.50;20.47;;;3.10;99.90;;;;;;5092300;28;20048;-70
2021/01/01 07:28:58;;;;;;;44.10;20.67;;;3.10;99.90;;;;;;5092262;28;20090;-70
2021/01/01 07:31:25;;;;;;;42.83;20.83;;;3.20;99.90;;;;;;5091876;28;20048;-70
2021/01/01 07:33:53;;;;;;;40.03;19.93;;;3.20;99.90;;;;;;5092154;28;20059;-70
2021/01/01 07:36:20;;;;;;;35.37;18.93;;;3.20;99.90;;;;;;5091946;28;20104;-70
2021/01/01 07:38:48;;;;;;;39.87;19.27;;;3.20;99.90;;;;;;5091911;28;20469;-70
2021/01/01 07:41:16;;;;;;;39.17;18.70;;;3.30;99.90;;;;;;5091289;28;20424;-70
2021/01/01 07:43:43;;;;;;;37.40;20.07;;;3.30;99.90;;;;;;5092279;28;20048;-70
2021/01/01 07:46:11;;;;;;;39.53;19.93;;;3.20;99.90;;;;;;5091638;28;20043;-70
2021/01/01 07:48:38;;;;;;;37.77;19.17;;;3.20;99.90;;;;;;5091949;28;20056;-70
2021/01/01 07:51:07;;;;;;;40.67;19.83;;;3.20;99.90;;;;;;5091026;28;20047;-70
2021/01/01 07:53:34;;;;;;;40.03;19.10;;;3.30;99.90;;;;;;5092001;28;20048;-70
2021/01/01 07:56:03;;;;;;;39.77;18.97;;;3.20;99.90;;;;;;5091477;28;20044;-70
2021/01/01 07:58:31;;;;;;;37.40;19.63;;;3.30;99.90;;;;;;5091649;28;20097;-70
2021/01/01 08:01:03;;;;;;;36.77;18.90;;;3.30;99.90;;;;;;5090132;28;20063;-70
2021/01/01 08:03:32;;;;;;;35.53;18.87;;;3.30;99.90;;;;;;5092144;28;20381;-70
2021/01/01 08:05:59;;;;;;;39.17;20.13;;;3.40;99.90;;;;;;5091157;28;20412;-70
2021/01/01 08:08:27;;;;;;;38.53;19.60;;;3.30;99.90;;;;;;5091427;28;20063;-70
2021/01/01 08:10:55;;;;;;;36.10;18.97;;;3.50;99.90;;;;;;5091340;28;20048;-70
2021/01/01 08:13:24;;;;;;;39.30;18.37;;;3.50;99.90;;;;;;5091121;28;20052;-70
2021/01/01 08:15:52;;;;;;;39.73;20.40;;;3.50;99.90;;;;;;5091530;28;20416;-70
2021/01/01 08:18:20;;;;;;;40.60;19.40;;;3.40;99.90;;;;;;5090866;28;20044;-70
2021/01/01 08:20:48;;;;;;;39.93;19.27;;;3.50;99.90;;;;;;5090953;28;20063;-69
2021/01/01 08:23:16;;;;;;;38.77;19.03;;;3.50;99.90;;;;;;5091024;28;20410;-70
2021/01/01 08:25:46;;;;;;;33.97;18.17;;;3.40;99.90;;;;;;5090972;28;20138;-70
2021/01/01 08:28:17;;;;;;;35.80;18.73;;;3.50;99.90;;;;;;5090417;28;20050;-70
2021/01/01 08:30:46;;;;;;;39.13;18.90;;;3.50;99.90;;;;;;5090836;28;20075;-70
2021/01/01 08:33:13;;;;;;;36.63;17.40;;;3.50;99.90;;;;;;5090331;28;20059;-70
2021/01/01 08:35:39;;;;;;;35.83;18.37;;;3.30;99.90;;;;;;5091058;28;20063;-70
2021/01/01 08:38:17;;;;;;;36.70;19.67;;;3.60;99.90;;;;;;5090707;28;20498;-70
2021/01/01 08:40:52;;;;;;;35.83;17.77;;;3.50;99.90;;;;;;5090747;28;20408;-70
2021/01/01 08:43:19;;;;;;;41.47;20.17;;;3.60;99.90;;;;;;5090683;28;20047;-70
2021/01/01 08:45:45;;;;;;;36.20;19.47;;;3.60;99.90;;;;;;5091163;28;20048;-70
2021/01/01 08:48:13;;;;;;;37.30;18.97;;;3.70;99.90;;;;;;5090859;28;20048;-70
2021/01/01 08:50:44;;;;;;;36.23;18.87;;;3.90;99.90;;;;;;5090656;28;20075;-70
2021/01/01 08:53:12;;;;;;;39.97;18.63;;;3.90;99.90;;;;;;5090499;28;20059;-70
2021/01/01 08:55:38;;;;;;;36.80;18.57;;;4.00;99.90;;;;;;5090788;28;20496;-70
2021/01/01 08:58:10;;;;;;;33.07;18.23;;;4.00;99.90;;;;;;5090413;28;20052;-70
2021/01/01 09:00:38;;;;;;;35.03;18.57;;;4.00;99.90;;;;;;5090084;28;20068;-70
2021/01/01 09:03:06;;;;;;;37.87;18.57;;;4.00;99.90;;;;;;5090643;28;20095;-70
2021/01/01 09:05:34;;;;;;;31.77;17.33;;;4.00;99.90;;;;;;5090473;28;20058;-70
2021/01/01 09:08:11;;;;;;;34.20;16.33;;;3.90;99.90;;;;;;5090676;28;20059;-70
2021/01/01 09:10:39;;;;;;;35.45;17.77;;;3.90;99.90;;;;;;5089954;28;20048;-70
2021/01/01 09:13:17;;;;;;;31.27;16.73;;;4.10;99.90;;;;;;5093036;28;20052;-70
2021/01/01 09:15:44;;;;;;;30.77;16.63;;;4.10;99.90;;;;;;5094501;28;20090;-70
2021/01/01 09:18:11;;;;;;;34.07;17.67;;;4.20;99.90;;;;;;5094517;28;20052;-70
2021/01/01 09:20:40;;;;;;;33.87;18.53;;;4.30;99.90;;;;;;5093934;28;20484;-70
2021/01/01 09:23:08;;;;;;;32.37;17.70;;;4.20;99.90;;;;;;5095284;28;20058;-70
2021/01/01 09:25:36;;;;;;;35.13;18.37;;;4.30;99.90;;;;;;5094413;28;20059;-69
2021/01/01 09:28:04;;;;;;;34.47;17.47;;;4.20;99.90;;;;;;5094675;28;20439;-70
2021/01/01 09:30:35;;;;;;;32.10;18.00;;;4.20;99.90;;;;;;5093861;28;20435;-70
2021/01/01 09:33:03;;;;;;;36.03;17.47;;;4.20;99.90;;;;;;5094589;28;20526;-70
2021/01/01 09:35:31;;;;;;;34.80;17.67;;;4.10;99.90;;;;;;5094279;28;20101;-70
2021/01/01 09:37:59;;;;;;;31.53;17.60;;;4.30;99.90;;;;;;5094135;28;20044;-70
2021/01/01 09:40:27;;;;;;;34.83;17.77;;;4.10;99.90;;;;;;5094118;28;20101;-69
2021/01/01 09:42:54;;;;;;;34.40;16.93;;;4.10;99.90;;;;;;5093985;28;20077;-70
2021/01/01 09:45:21;;;;;;;31.53;16.00;;;4.30;99.90;;;;;;5094250;28;20044;-70
2021/01/01 09:47:49;;;;;;;30.00;15.27;;;4.40;99.90;;;;;;5094302;28;20059;-70
2021/01/01 09:50:16;;;;;;;28.20;14.40;;;4.40;99.90;;;;;;5093488;28;20044;-70
2021/01/01 09:52:42;;;;;;;25.97;13.47;;;4.20;99.90;;;;;;5093720;28;20514;-70
2021/01/01 09:55:10;;;;;;;26.20;13.87;;;4.20;99.90;;;;;;5093755;28;20048;-70
2021/01/01 09:57:38;;;;;;;25.73;13.97;;;4.20;99.90;;;;;;5093318;28;20055;-70
2021/01/01 10:00:08;;;;;;;24.37;13.53;;;4.30;99.90;;;;;;5094214;28;20142;-70
2021/01/01 10:02:34;;;;;;;27.97;14.97;;;4.40;99.90;;;;;;5093930;28;20052;-70
2021/01/01 10:05:02;;;;;;;25.30;13.80;;;4.50;99.90;;;;;;5094027;28;20048;-70
2021/01/01 10:07:29;;;;;;;24.20;13.53;;;4.40;99.90;;;;;;5093707;28;20476;-70
2021/01/01 10:09:56;;;;;;;27.13;14.77;;;4.40;99.90;;;;;;5094072;28;20052;-69
2021/01/01 10:12:24;;;;;;;27.23;14.47;;;4.60;99.90;;;;;;5093199;28;20093;-70
2021/01/01 10:14:54;;;;;;;28.53;14.87;;;4.60;99.90;;;;;;5093613;28;20052;-70
2021/01/01 10:17:21;;;;;;;27.97;14.27;;;4.50;99.90;;;;;;5093493;28;20048;-69
2021/01/01 10:19:48;;;;;;;26.93;14.93;;;4.40;99.90;;;;;;5093489;28;20055;-69
2021/01/01 10:22:15;;;;;;;28.93;14.70;;;4.20;99.90;;;;;;5093677;28;20051;-69
2021/01/01 10:24:43;;;;;;;29.77;14.13;;;4.20;99.90;;;;;;5093334;28;20510;-70
2021/01/01 10:27:10;;;;;;;25.53;14.37;;;4.10;99.90;;;;;;5093632;28;20056;-70
2021/01/01 10:29:37;;;;;;;29.17;14.83;;;4.00;99.90;;;;;;5093105;28;20059;-70
2021/01/01 10:32:05;;;;;;;30.27;17.03;;;4.00;99.90;;;;;;5093105;28;20044;-70
2021/01/01 10:34:31;;;;;;;31.17;16.73;;;3.90;99.90;;;;;;5093063;28;20052;-70
2021/01/01 10:36:58;;;;;;;30.47;15.93;;;4.00;99.90;;;;;;5093341;28;20052;-70
2021/01/01 10:39:26;;;;;;;31.57;15.57;;;3.90;99.90;;;;;;5093309;28;20048;-70
2021/01/01 10:41:53;;;;;;;31.70;15.57;;;3.90;99.90;;;;;;5093310;28;20047;-70
2021/01/01 10:44:20;;;;;;;30.00;15.10;;;3.90;99.90;;;;;;5093072;28;20058;-70
2021/01/01 10:46:52;;;;;;;32.10;15.57;;;4.10;99.90;;;;;;5093046;28;20052;-70
2021/01/01 10:49:19;;;;;;;32.77;14.30;;;4.10;99.90;;;;;;5093773;28;20048;-69
2021/01/01 10:51:45;;;;;;;28.40;14.47;;;4.10;99.90;;;;;;5092599;28;20048;-70
2021/01/01 10:54:12;;;;;;;25.43;13.83;;;4.10;99.90;;;;;;5093118;28;20055;-70
2021/01/01 10:56:40;;;;;;;27.10;13.93;;;4.20;99.90;;;;;;5092854;28;20044;-69
2021/01/01 10:59:06;;;;;;;27.90;14.80;;;4.20;99.90;;;;;;5092732;28;20055;-70
2021/01/01 11:01:33;;;;;;;28.00;14.97;;;4.20;99.90;;;;;;5092380;28;20044;-70
2021/01/01 11:04:00;;;;;;;27.57;13.50;;;4.20;99.90;;;;;;5092911;28;20047;-70
2021/01/01 11:06:27;;;;;;;30.30;14.43;;;4.40;99.90;;;;;;5092801;28;20063;-70
2021/01/01 11:08:53;;;;;;;26.87;13.53;;;4.30;99.90;;;;;;5092927;28;20048;-69
2021/01/01 11:11:24;;;;;;;26.20;13.63;;;4.30;99.90;;;;;;5092281;28;20044;-70
2021/01/01 11:13:55;;;;;;;31.10;16.33;;;4.30;99.90;;;;;;5092831;28;20051;-70
2021/01/01 12:20:30;;;;;;;18.03;8.67;;;5.00;99.90;;;;;;5091425;28;20114;-69
2021/01/01 12:23:01;;;;;;;18.53;9.00;;;4.90;99.90;;;;;;5091540;28;20317;-69
2021/01/01 12:25:29;;;;;;;17.80;9.00;;;4.90;99.90;;;;;;5091171;28;20549;-69
2021/01/01 12:27:58;;;;;;;18.17;9.07;;;5.00;99.90;;;;;;5091416;28;20097;-70
2021/01/01 12:30:27;;;;;;;15.67;7.93;;;5.00;99.90;;;;;;5090796;28;20599;-70
2021/01/01 12:32:54;;;;;;;14.00;7.67;;;5.00;99.90;;;;;;5091647;28;20101;-70
2021/01/01 12:35:22;;;;;;;14.93;7.97;;;5.10;99.90;;;;;;5091173;28;20056;-69
2021/01/01 12:37:59;;;;;;;13.40;6.97;;;5.00;99.90;;;;;;5091345;28;20492;-69
2021/01/01 12:40:26;;;;;;;;;;;4.90;99.90;;;;;;5091032;28;20055;-70
2021/01/01 12:42:52;;;;;;;15.98;8.50;;;5.00;99.90;;;;;;5091531;28;19920;-69
2021/01/01 12:45:19;;;;;;;14.00;7.63;;;4.90;99.90;;;;;;5091058;28;20077;-70
2021/01/01 12:47:46;;;;;;;12.70;6.60;;;4.90;99.90;;;;;;5089926;28;20405;-69
2021/01/01 12:50:13;;;;;;;15.40;7.67;;;4.90;99.90;;;;;;5090881;28;20056;-69
2021/01/01 12:52:50;;;;;;;16.17;7.67;;;4.90;99.90;;;;;;5090958;28;20415;-69
2021/01/01 12:55:16;;;;;;;12.93;6.43;;;5.00;99.90;;;;;;5091386;28;20048;-70
2021/01/01 12:57:43;;;;;;;14.17;6.77;;;5.00;99.90;;;;;;5090239;28;20056;-69
2021/01/01 13:00:11;;;;;;;13.83;6.83;;;5.00;99.90;;;;;;5090951;28;20048;-69
2021/01/01 13:02:38;;;;;;;14.57;6.80;;;5.00;99.90;;;;;;5091028;28;20419;-69
2021/01/01 13:05:06;;;;;;;13.87;6.60;;;5.00;99.90;;;;;;5091439;28;20048;-69
2021/01/01 13:07:32;;;;;;;12.03;5.67;;;5.00;99.90;;;;;;5091414;28;20048;-69
2021/01/01 13:10:00;;;;;;;11.10;5.23;;;4.90;99.90;;;;;;5092312;28;20067;-69
2021/01/01 13:12:27;;;;;;;11.77;5.47;;;4.90;99.90;;;;;;5092215;28;20412;-69
2021/01/01 13:14:53;;;;;;;12.63;5.97;;;4.70;99.90;;;;;;5092175;28;20048;-69
2021/01/01 13:17:20;;;;;;;12.30;5.77;;;4.70;99.90;;;;;;5092004;28;20510;-69
2021/01/01 13:19:46;;;;;;;12.87;6.43;;;4.70;99.90;;;;;;5091604;28;20044;-70
2021/01/01 13:22:13;;;;;;;11.30;5.60;;;4.70;99.90;;;;;;5091554;28;20056;-69
2021/01/01 13:24:40;;;;;;;11.10;5.57;;;4.80;99.90;;;;;;5090702;28;20052;-70
2021/01/01 13:27:08;;;;;;;14.57;5.83;;;4.80;99.90;;;;;;5091124;28;20107;-69
2021/01/01 13:29:34;;;;;;;12.13;5.60;;;4.80;99.90;;;;;;5090940;28;20044;-69
2021/01/01 13:32:01;;;;;;;11.47;5.70;;;4.70;99.90;;;;;;5090755;28;20543;-69
2021/01/01 13:34:28;;;;;;;16.47;6.60;;;4.70;99.90;;;;;;5091194;28;20052;-69
2021/01/01 13:36:55;;;;;;;10.77;5.43;;;4.80;99.90;;;;;;5090580;28;20484;-69
2021/01/01 13:39:22;;;;;;;10.73;5.23;;;4.90;99.90;;;;;;5090372;28;20055;-69
2021/01/01 13:41:50;;;;;;;13.03;5.67;;;4.90;99.90;;;;;;5090622;28;20051;-69
2021/01/01 13:44:18;;;;;;;11.07;5.50;;;5.00;99.90;;;;;;5090353;28;20143;-69
2021/01/01 13:46:45;;;;;;;10.13;4.77;;;4.90;99.90;;;;;;5090784;28;20496;-69
2021/01/01 13:49:12;;;;;;;12.47;5.97;;;5.00;99.90;;;;;;5090351;28;20131;-70